Aviation Digital Data Service (ADDS)

Output produced by METARs form (1209 UTC 17 December 2018)
found at http://aviationweather.gov/metar/data/
 
KCXO 171159Z 1712/1812 VRB04KT P6SM BKN180 
     TEMPO 1712/1714 5SM BR 
     FM180700 00000KT 3SM BR SKC